sensor_id;sensor_type;location;lat;lon;timestamp;P1;durP1;ratioP1;P2;durP2;ratioP2
23802;SDS011;12082;51.786;6.018;2022-10-30T00:00:24;16.20;;;14.07;;
23802;SDS011;12082;51.786;6.018;2022-10-30T00:02:50;21.27;;;15.57;;
23802;SDS011;12082;51.786;6.018;2022-10-30T00:05:17;19.07;;;15.87;;
23802;SDS011;12082;51.786;6.018;2022-10-30T00:07:44;16.43;;;14.67;;
23802;SDS011;12082;51.786;6.018;2022-10-30T00:10:10;19.40;;;15.40;;
23802;SDS011;12082;51.786;6.018;2022-10-30T00:12:36;16.47;;;14.83;;
23802;SDS011;12082;51.786;6.018;2022-10-30T00:15:02;18.67;;;15.47;;
23802;SDS011;12082;51.786;6.018;2022-10-30T00:17:28;21.50;;;14.40;;
23802;SDS011;12082;51.786;6.018;2022-10-30T00:19:53;25.70;;;16.43;;
23802;SDS011;12082;51.786;6.018;2022-10-30T00:22:19;17.77;;;14.93;;
23802;SDS011;12082;51.786;6.018;2022-10-30T00:24:45;16.67;;;14.77;;
23802;SDS011;12082;51.786;6.018;2022-10-30T00:27:11;18.90;;;15.07;;
23802;SDS011;12082;51.786;6.018;2022-10-30T00:29:37;23.07;;;15.53;;
23802;SDS011;12082;51.786;6.018;2022-10-30T00:32:03;18.07;;;14.30;;
23802;SDS011;12082;51.786;6.018;2022-10-30T00:34:29;22.20;;;14.43;;
23802;SDS011;12082;51.786;6.018;2022-10-30T00:36:55;16.07;;;14.53;;
23802;SDS011;12082;51.786;6.018;2022-10-30T00:39:21;19.73;;;14.70;;
23802;SDS011;12082;51.786;6.018;2022-10-30T00:41:47;18.43;;;14.67;;
23802;SDS011;12082;51.786;6.018;2022-10-30T00:46:58;23.00;;;15.00;;
23802;SDS011;12082;51.786;6.018;2022-10-30T00:49:32;15.43;;;13.93;;
23802;SDS011;12082;51.786;6.018;2022-10-30T00:52:00;18.63;;;14.90;;
23802;SDS011;12082;51.786;6.018;2022-10-30T00:54:26;21.37;;;16.23;;
23802;SDS011;12082;51.786;6.018;2022-10-30T00:56:52;18.30;;;15.30;;
23802;SDS011;12082;51.786;6.018;2022-10-30T00:59:22;17.97;;;16.07;;
23802;SDS011;12082;51.786;6.018;2022-10-30T01:01:48;20.53;;;16.27;;
23802;SDS011;12082;51.786;6.018;2022-10-30T01:04:14;19.80;;;16.10;;
23802;SDS011;12082;51.786;6.018;2022-10-30T01:06:42;20.03;;;16.40;;
23802;SDS011;12082;51.786;6.018;2022-10-30T01:09:12;19.87;;;16.10;;
23802;SDS011;12082;51.786;6.018;2022-10-30T01:11:38;19.10;;;15.93;;
23802;SDS011;12082;51.786;6.018;2022-10-30T01:14:05;22.77;;;17.50;;
23802;SDS011;12082;51.786;6.018;2022-10-30T01:24:14;21.27;;;15.63;;
23802;SDS011;12082;51.786;6.018;2022-10-30T01:34:45;20.97;;;18.07;;
23802;SDS011;12082;51.786;6.018;2022-10-30T01:37:13;22.20;;;17.20;;
23802;SDS011;12082;51.786;6.018;2022-10-30T01:39:40;19.90;;;17.93;;
23802;SDS011;12082;51.786;6.018;2022-10-30T01:42:10;21.33;;;18.73;;
23802;SDS011;12082;51.786;6.018;2022-10-30T01:44:52;20.20;;;18.27;;
23802;SDS011;12082;51.786;6.018;2022-10-30T01:52:28;26.70;;;21.20;;
23802;SDS011;12082;51.786;6.018;2022-10-30T01:55:07;22.13;;;19.90;;
23802;SDS011;12082;51.786;6.018;2022-10-30T01:57:38;23.17;;;20.87;;
23802;SDS011;12082;51.786;6.018;2022-10-30T02:00:09;24.37;;;21.83;;
23802;SDS011;12082;51.786;6.018;2022-10-30T02:02:35;22.83;;;20.60;;
23802;SDS011;12082;51.786;6.018;2022-10-30T02:05:02;21.90;;;20.07;;
23802;SDS011;12082;51.786;6.018;2022-10-30T02:07:28;23.30;;;21.17;;
23802;SDS011;12082;51.786;6.018;2022-10-30T02:09:54;27.17;;;21.40;;
23802;SDS011;12082;51.786;6.018;2022-10-30T02:12:20;23.87;;;21.37;;
23802;SDS011;12082;51.786;6.018;2022-10-30T02:14:48;21.93;;;19.93;;
23802;SDS011;12082;51.786;6.018;2022-10-30T02:17:15;23.90;;;21.17;;
23802;SDS011;12082;51.786;6.018;2022-10-30T02:19:41;29.03;;;20.97;;
23802;SDS011;12082;51.786;6.018;2022-10-30T02:22:07;22.73;;;20.40;;
23802;SDS011;12082;51.786;6.018;2022-10-30T02:24:33;24.27;;;21.20;;
23802;SDS011;12082;51.786;6.018;2022-10-30T02:26:59;23.17;;;20.87;;
23802;SDS011;12082;51.786;6.018;2022-10-30T02:29:25;22.23;;;20.27;;
23802;SDS011;12082;51.786;6.018;2022-10-30T02:31:51;23.60;;;21.27;;
23802;SDS011;12082;51.786;6.018;2022-10-30T02:34:17;23.87;;;21.23;;
23802;SDS011;12082;51.786;6.018;2022-10-30T02:36:43;22.50;;;19.97;;
23802;SDS011;12082;51.786;6.018;2022-10-30T02:39:09;23.10;;;21.13;;
23802;SDS011;12082;51.786;6.018;2022-10-30T02:41:35;26.93;;;21.03;;
23802;SDS011;12082;51.786;6.018;2022-10-30T02:44:02;24.10;;;21.57;;
23802;SDS011;12082;51.786;6.018;2022-10-30T02:46:28;23.40;;;21.10;;
23802;SDS011;12082;51.786;6.018;2022-10-30T02:48:54;23.87;;;21.50;;
23802;SDS011;12082;51.786;6.018;2022-10-30T02:51:20;23.73;;;20.77;;
23802;SDS011;12082;51.786;6.018;2022-10-30T02:53:46;24.30;;;21.13;;
23802;SDS011;12082;51.786;6.018;2022-10-30T02:56:12;22.37;;;20.13;;
23802;SDS011;12082;51.786;6.018;2022-10-30T02:58:39;25.63;;;21.23;;
23802;SDS011;12082;51.786;6.018;2022-10-30T03:01:06;21.27;;;19.37;;
23802;SDS011;12082;51.786;6.018;2022-10-30T03:03:32;21.90;;;19.70;;
23802;SDS011;12082;51.786;6.018;2022-10-30T03:05:59;22.60;;;19.63;;
23802;SDS011;12082;51.786;6.018;2022-10-30T03:08:25;22.60;;;18.57;;
23802;SDS011;12082;51.786;6.018;2022-10-30T03:10:51;22.10;;;19.50;;
23802;SDS011;12082;51.786;6.018;2022-10-30T03:13:17;21.63;;;19.43;;
23802;SDS011;12082;51.786;6.018;2022-10-30T03:15:43;19.97;;;18.13;;
23802;SDS011;12082;51.786;6.018;2022-10-30T03:18:08;21.67;;;19.47;;
23802;SDS011;12082;51.786;6.018;2022-10-30T03:20:34;25.50;;;19.80;;
23802;SDS011;12082;51.786;6.018;2022-10-30T03:23:00;22.43;;;20.17;;
23802;SDS011;12082;51.786;6.018;2022-10-30T03:25:26;22.40;;;20.03;;
23802;SDS011;12082;51.786;6.018;2022-10-30T03:27:52;24.53;;;20.03;;
23802;SDS011;12082;51.786;6.018;2022-10-30T03:30:18;23.93;;;20.23;;
23802;SDS011;12082;51.786;6.018;2022-10-30T03:32:44;21.50;;;19.20;;
23802;SDS011;12082;51.786;6.018;2022-10-30T03:35:10;22.40;;;19.47;;
23802;SDS011;12082;51.786;6.018;2022-10-30T03:37:36;23.20;;;20.00;;
23802;SDS011;12082;51.786;6.018;2022-10-30T03:40:02;24.10;;;19.27;;
23802;SDS011;12082;51.786;6.018;2022-10-30T03:42:28;22.17;;;19.77;;
23802;SDS011;12082;51.786;6.018;2022-10-30T03:44:54;21.80;;;19.53;;
23802;SDS011;12082;51.786;6.018;2022-10-30T03:47:20;26.63;;;19.77;;
23802;SDS011;12082;51.786;6.018;2022-10-30T03:49:46;21.93;;;19.67;;
23802;SDS011;12082;51.786;6.018;2022-10-30T03:52:12;25.07;;;20.27;;
23802;SDS011;12082;51.786;6.018;2022-10-30T03:54:38;22.17;;;19.87;;
23802;SDS011;12082;51.786;6.018;2022-10-30T03:57:04;23.80;;;21.30;;
23802;SDS011;12082;51.786;6.018;2022-10-30T03:59:30;26.40;;;22.00;;
23802;SDS011;12082;51.786;6.018;2022-10-30T04:01:56;22.10;;;18.97;;
23802;SDS011;12082;51.786;6.018;2022-10-30T04:04:22;21.80;;;19.50;;
23802;SDS011;12082;51.786;6.018;2022-10-30T04:06:48;22.17;;;19.83;;
23802;SDS011;12082;51.786;6.018;2022-10-30T04:09:14;21.27;;;18.97;;
23802;SDS011;12082;51.786;6.018;2022-10-30T04:11:40;24.30;;;18.90;;
23802;SDS011;12082;51.786;6.018;2022-10-30T04:14:06;22.90;;;20.70;;
23802;SDS011;12082;51.786;6.018;2022-10-30T04:16:31;21.53;;;19.60;;
23802;SDS011;12082;51.786;6.018;2022-10-30T04:18:57;22.17;;;19.57;;
23802;SDS011;12082;51.786;6.018;2022-10-30T04:21:23;21.17;;;19.10;;
23802;SDS011;12082;51.786;6.018;2022-10-30T04:23:49;22.53;;;20.20;;
23802;SDS011;12082;51.786;6.018;2022-10-30T04:26:16;27.23;;;20.03;;
23802;SDS011;12082;51.786;6.018;2022-10-30T04:28:42;24.13;;;21.53;;
23802;SDS011;12082;51.786;6.018;2022-10-30T04:31:08;29.13;;;20.23;;
23802;SDS011;12082;51.786;6.018;2022-10-30T04:33:34;22.07;;;19.77;;
23802;SDS011;12082;51.786;6.018;2022-10-30T04:36:00;23.03;;;20.27;;
23802;SDS011;12082;51.786;6.018;2022-10-30T04:38:26;22.73;;;20.37;;
23802;SDS011;12082;51.786;6.018;2022-10-30T04:40:52;22.63;;;20.23;;
23802;SDS011;12082;51.786;6.018;2022-10-30T04:43:18;22.10;;;19.87;;
23802;SDS011;12082;51.786;6.018;2022-10-30T04:45:44;23.97;;;20.07;;
23802;SDS011;12082;51.786;6.018;2022-10-30T04:48:14;25.50;;;20.50;;
23802;SDS011;12082;51.786;6.018;2022-10-30T04:50:40;26.93;;;19.13;;
23802;SDS011;12082;51.786;6.018;2022-10-30T04:53:11;22.43;;;19.57;;
23802;SDS011;12082;51.786;6.018;2022-10-30T04:55:37;26.60;;;20.03;;
23802;SDS011;12082;51.786;6.018;2022-10-30T04:58:03;30.80;;;20.00;;
23802;SDS011;12082;51.786;6.018;2022-10-30T05:00:31;21.43;;;19.17;;
23802;SDS011;12082;51.786;6.018;2022-10-30T05:02:58;23.93;;;21.03;;
23802;SDS011;12082;51.786;6.018;2022-10-30T05:05:25;19.73;;;17.80;;
23802;SDS011;12082;51.786;6.018;2022-10-30T05:07:51;20.90;;;18.93;;
23802;SDS011;12082;51.786;6.018;2022-10-30T05:10:16;21.57;;;19.30;;
23802;SDS011;12082;51.786;6.018;2022-10-30T05:12:43;20.93;;;19.23;;
23802;SDS011;12082;51.786;6.018;2022-10-30T05:15:10;20.63;;;18.87;;
23802;SDS011;12082;51.786;6.018;2022-10-30T05:17:36;23.00;;;19.97;;
23802;SDS011;12082;51.786;6.018;2022-10-30T05:20:03;22.50;;;20.50;;
23802;SDS011;12082;51.786;6.018;2022-10-30T05:22:29;22.30;;;20.23;;
23802;SDS011;12082;51.786;6.018;2022-10-30T05:24:55;23.13;;;21.03;;
23802;SDS011;12082;51.786;6.018;2022-10-30T05:27:21;22.73;;;20.40;;
23802;SDS011;12082;51.786;6.018;2022-10-30T05:29:47;23.60;;;21.27;;
23802;SDS011;12082;51.786;6.018;2022-10-30T05:32:13;23.97;;;21.47;;
23802;SDS011;12082;51.786;6.018;2022-10-30T05:34:39;25.87;;;22.73;;
23802;SDS011;12082;51.786;6.018;2022-10-30T05:37:05;24.30;;;22.03;;
23802;SDS011;12082;51.786;6.018;2022-10-30T05:39:31;24.93;;;22.77;;
23802;SDS011;12082;51.786;6.018;2022-10-30T05:41:57;26.23;;;23.90;;
23802;SDS011;12082;51.786;6.018;2022-10-30T05:44:23;25.77;;;23.27;;
23802;SDS011;12082;51.786;6.018;2022-10-30T05:46:49;27.50;;;25.00;;
23802;SDS011;12082;51.786;6.018;2022-10-30T05:49:14;27.87;;;25.57;;
23802;SDS011;12082;51.786;6.018;2022-10-30T05:51:42;27.77;;;25.47;;
23802;SDS011;12082;51.786;6.018;2022-10-30T05:54:08;29.57;;;26.93;;
23802;SDS011;12082;51.786;6.018;2022-10-30T05:56:34;31.47;;;28.43;;
23802;SDS011;12082;51.786;6.018;2022-10-30T05:59:00;28.23;;;25.70;;
23802;SDS011;12082;51.786;6.018;2022-10-30T06:01:26;28.53;;;25.70;;
23802;SDS011;12082;51.786;6.018;2022-10-30T06:03:51;29.20;;;26.13;;
23802;SDS011;12082;51.786;6.018;2022-10-30T06:06:17;28.87;;;26.07;;
23802;SDS011;12082;51.786;6.018;2022-10-30T06:08:43;27.20;;;24.30;;
23802;SDS011;12082;51.786;6.018;2022-10-30T06:11:09;28.43;;;26.07;;
23802;SDS011;12082;51.786;6.018;2022-10-30T06:13:35;27.43;;;24.97;;
23802;SDS011;12082;51.786;6.018;2022-10-30T06:16:01;26.67;;;24.50;;
23802;SDS011;12082;51.786;6.018;2022-10-30T06:18:27;27.00;;;24.47;;
23802;SDS011;12082;51.786;6.018;2022-10-30T06:20:53;26.60;;;24.53;;
23802;SDS011;12082;51.786;6.018;2022-10-30T06:23:20;25.80;;;23.70;;
23802;SDS011;12082;51.786;6.018;2022-10-30T06:25:46;28.50;;;26.07;;
23802;SDS011;12082;51.786;6.018;2022-10-30T06:28:12;30.17;;;27.17;;
23802;SDS011;12082;51.786;6.018;2022-10-30T06:30:38;29.07;;;26.67;;
23802;SDS011;12082;51.786;6.018;2022-10-30T06:33:05;30.27;;;27.67;;
23802;SDS011;12082;51.786;6.018;2022-10-30T06:35:31;30.77;;;28.40;;
23802;SDS011;12082;51.786;6.018;2022-10-30T06:37:58;31.93;;;29.20;;
23802;SDS011;12082;51.786;6.018;2022-10-30T06:40:24;32.07;;;29.37;;
23802;SDS011;12082;51.786;6.018;2022-10-30T06:42:51;31.50;;;28.87;;
23802;SDS011;12082;51.786;6.018;2022-10-30T06:45:17;31.47;;;28.87;;
23802;SDS011;12082;51.786;6.018;2022-10-30T06:47:44;32.63;;;29.87;;
23802;SDS011;12082;51.786;6.018;2022-10-30T06:50:12;30.13;;;27.63;;
23802;SDS011;12082;51.786;6.018;2022-10-30T06:52:38;31.10;;;28.60;;
23802;SDS011;12082;51.786;6.018;2022-10-30T06:55:04;31.53;;;28.83;;
23802;SDS011;12082;51.786;6.018;2022-10-30T06:57:30;31.90;;;29.40;;
23802;SDS011;12082;51.786;6.018;2022-10-30T06:59:56;36.37;;;33.47;;
23802;SDS011;12082;51.786;6.018;2022-10-30T07:02:22;33.00;;;30.53;;
23802;SDS011;12082;51.786;6.018;2022-10-30T07:04:48;31.53;;;28.80;;
23802;SDS011;12082;51.786;6.018;2022-10-30T07:07:14;33.87;;;31.17;;
23802;SDS011;12082;51.786;6.018;2022-10-30T07:09:40;33.40;;;31.00;;
23802;SDS011;12082;51.786;6.018;2022-10-30T07:12:06;32.83;;;30.03;;
23802;SDS011;12082;51.786;6.018;2022-10-30T07:14:33;31.90;;;29.60;;
23802;SDS011;12082;51.786;6.018;2022-10-30T07:16:59;31.03;;;28.87;;
23802;SDS011;12082;51.786;6.018;2022-10-30T07:19:25;31.60;;;29.23;;
23802;SDS011;12082;51.786;6.018;2022-10-30T07:21:52;32.73;;;29.80;;
23802;SDS011;12082;51.786;6.018;2022-10-30T07:24:18;31.83;;;29.47;;
23802;SDS011;12082;51.786;6.018;2022-10-30T07:26:44;31.27;;;28.83;;
23802;SDS011;12082;51.786;6.018;2022-10-30T07:29:10;28.67;;;26.47;;
23802;SDS011;12082;51.786;6.018;2022-10-30T07:31:36;29.60;;;27.17;;
23802;SDS011;12082;51.786;6.018;2022-10-30T07:34:02;27.13;;;24.93;;
23802;SDS011;12082;51.786;6.018;2022-10-30T07:36:28;26.70;;;24.27;;
23802;SDS011;12082;51.786;6.018;2022-10-30T07:38:54;25.80;;;23.53;;
23802;SDS011;12082;51.786;6.018;2022-10-30T07:41:20;27.03;;;24.40;;
23802;SDS011;12082;51.786;6.018;2022-10-30T07:43:46;25.87;;;23.37;;
23802;SDS011;12082;51.786;6.018;2022-10-30T07:46:12;24.47;;;22.47;;
23802;SDS011;12082;51.786;6.018;2022-10-30T07:48:39;24.33;;;22.17;;
23802;SDS011;12082;51.786;6.018;2022-10-30T07:51:05;25.77;;;23.37;;
23802;SDS011;12082;51.786;6.018;2022-10-30T07:53:31;23.73;;;21.40;;
23802;SDS011;12082;51.786;6.018;2022-10-30T07:55:57;23.87;;;21.47;;
23802;SDS011;12082;51.786;6.018;2022-10-30T07:58:23;23.77;;;21.73;;
23802;SDS011;12082;51.786;6.018;2022-10-30T08:00:49;24.53;;;22.23;;
23802;SDS011;12082;51.786;6.018;2022-10-30T08:03:15;28.93;;;23.47;;
23802;SDS011;12082;51.786;6.018;2022-10-30T08:05:41;29.30;;;24.03;;
23802;SDS011;12082;51.786;6.018;2022-10-30T08:08:07;27.87;;;24.87;;
23802;SDS011;12082;51.786;6.018;2022-10-30T08:10:33;30.20;;;24.33;;
23802;SDS011;12082;51.786;6.018;2022-10-30T08:12:59;32.53;;;25.67;;
23802;SDS011;12082;51.786;6.018;2022-10-30T08:15:26;32.20;;;23.20;;
23802;SDS011;12082;51.786;6.018;2022-10-30T08:17:52;31.50;;;23.23;;
23802;SDS011;12082;51.786;6.018;2022-10-30T08:20:19;29.63;;;22.27;;
23802;SDS011;12082;51.786;6.018;2022-10-30T08:22:46;25.27;;;20.73;;
23802;SDS011;12082;51.786;6.018;2022-10-30T08:25:12;27.53;;;21.03;;
23802;SDS011;12082;51.786;6.018;2022-10-30T08:27:38;25.97;;;19.67;;
23802;SDS011;12082;51.786;6.018;2022-10-30T08:30:04;21.87;;;19.60;;
23802;SDS011;12082;51.786;6.018;2022-10-30T08:32:30;29.30;;;21.47;;
23802;SDS011;12082;51.786;6.018;2022-10-30T08:34:56;23.73;;;18.70;;
23802;SDS011;12082;51.786;6.018;2022-10-30T08:37:22;21.90;;;17.73;;
23802;SDS011;12082;51.786;6.018;2022-10-30T08:39:48;23.37;;;18.47;;
23802;SDS011;12082;51.786;6.018;2022-10-30T08:42:14;22.40;;;18.00;;
23802;SDS011;12082;51.786;6.018;2022-10-30T08:44:40;20.83;;;18.47;;
23802;SDS011;12082;51.786;6.018;2022-10-30T08:47:06;18.37;;;16.27;;
23802;SDS011;12082;51.786;6.018;2022-10-30T08:49:32;17.97;;;16.10;;
23802;SDS011;12082;51.786;6.018;2022-10-30T08:51:58;22.57;;;17.03;;
23802;SDS011;12082;51.786;6.018;2022-10-30T08:54:24;23.40;;;16.67;;
23802;SDS011;12082;51.786;6.018;2022-10-30T08:56:50;18.90;;;16.90;;
23802;SDS011;12082;51.786;6.018;2022-10-30T08:59:16;17.57;;;15.73;;
23802;SDS011;12082;51.786;6.018;2022-10-30T09:01:42;22.23;;;18.63;;
23802;SDS011;12082;51.786;6.018;2022-10-30T09:04:08;23.90;;;18.27;;
23802;SDS011;12082;51.786;6.018;2022-10-30T09:06:34;20.30;;;17.40;;
23802;SDS011;12082;51.786;6.018;2022-10-30T09:09:00;29.57;;;18.17;;
23802;SDS011;12082;51.786;6.018;2022-10-30T09:11:26;28.87;;;18.87;;
23802;SDS011;12082;51.786;6.018;2022-10-30T09:13:52;21.10;;;18.00;;
23802;SDS011;12082;51.786;6.018;2022-10-30T09:16:18;22.10;;;17.77;;
23802;SDS011;12082;51.786;6.018;2022-10-30T09:18:44;23.47;;;17.87;;
23802;SDS011;12082;51.786;6.018;2022-10-30T09:21:10;20.60;;;16.90;;
23802;SDS011;12082;51.786;6.018;2022-10-30T09:23:36;25.80;;;18.20;;
23802;SDS011;12082;51.786;6.018;2022-10-30T09:26:01;20.10;;;16.87;;
23802;SDS011;12082;51.786;6.018;2022-10-30T09:28:27;18.83;;;16.67;;
23802;SDS011;12082;51.786;6.018;2022-10-30T09:30:53;20.17;;;15.90;;
23802;SDS011;12082;51.786;6.018;2022-10-30T09:33:20;19.57;;;16.70;;
23802;SDS011;12082;51.786;6.018;2022-10-30T09:35:47;18.53;;;16.50;;
23802;SDS011;12082;51.786;6.018;2022-10-30T09:38:13;23.10;;;16.80;;
23802;SDS011;12082;51.786;6.018;2022-10-30T09:45:47;20.97;;;14.13;;
23802;SDS011;12082;51.786;6.018;2022-10-30T09:48:38;18.57;;;14.60;;
23802;SDS011;12082;51.786;6.018;2022-10-30T09:53:43;18.57;;;13.07;;
23802;SDS011;12082;51.786;6.018;2022-10-30T09:59:26;18.73;;;13.23;;
23802;SDS011;12082;51.786;6.018;2022-10-30T10:01:27;17.63;;;12.60;;
23802;SDS011;12082;51.786;6.018;2022-10-30T10:03:57;17.50;;;12.87;;
23802;SDS011;12082;51.786;6.018;2022-10-30T10:06:25;14.93;;;12.47;;
23802;SDS011;12082;51.786;6.018;2022-10-30T10:08:53;20.97;;;12.67;;
23802;SDS011;12082;51.786;6.018;2022-10-30T10:11:32;19.27;;;13.07;;
23802;SDS011;12082;51.786;6.018;2022-10-30T10:14:01;15.60;;;12.80;;
23802;SDS011;12082;51.786;6.018;2022-10-30T10:16:32;16.10;;;12.57;;
23802;SDS011;12082;51.786;6.018;2022-10-30T10:21:29;21.20;;;12.93;;
23802;SDS011;12082;51.786;6.018;2022-10-30T10:23:58;16.60;;;12.30;;
23802;SDS011;12082;51.786;6.018;2022-10-30T10:26:26;17.63;;;11.97;;
23802;SDS011;12082;51.786;6.018;2022-10-30T10:34:08;22.20;;;12.17;;
23802;SDS011;12082;51.786;6.018;2022-10-30T10:39:31;14.23;;;11.00;;
23802;SDS011;12082;51.786;6.018;2022-10-30T10:44:48;16.20;;;10.83;;
23802;SDS011;12082;51.786;6.018;2022-10-30T10:47:29;24.53;;;12.47;;
23802;SDS011;12082;51.786;6.018;2022-10-30T10:54:55;18.30;;;9.83;;
23802;SDS011;12082;51.786;6.018;2022-10-30T10:57:26;16.50;;;10.30;;
23802;SDS011;12082;51.786;6.018;2022-10-30T10:59:55;14.60;;;10.83;;
23802;SDS011;12082;51.786;6.018;2022-10-30T11:05:13;19.33;;;10.40;;
23802;SDS011;12082;51.786;6.018;2022-10-30T11:07:45;16.03;;;9.87;;
23802;SDS011;12082;51.786;6.018;2022-10-30T11:10:12;19.47;;;9.90;;
23802;SDS011;12082;51.786;6.018;2022-10-30T11:12:39;12.47;;;9.87;;
23802;SDS011;12082;51.786;6.018;2022-10-30T11:15:17;16.67;;;10.40;;
23802;SDS011;12082;51.786;6.018;2022-10-30T11:17:48;17.83;;;9.60;;
23802;SDS011;12082;51.786;6.018;2022-10-30T11:20:17;12.70;;;10.80;;
23802;SDS011;12082;51.786;6.018;2022-10-30T11:22:45;15.40;;;9.90;;
23802;SDS011;12082;51.786;6.018;2022-10-30T11:27:43;16.13;;;10.23;;
23802;SDS011;12082;51.786;6.018;2022-10-30T11:30:18;15.17;;;9.90;;
23802;SDS011;12082;51.786;6.018;2022-10-30T11:32:44;15.37;;;9.83;;
23802;SDS011;12082;51.786;6.018;2022-10-30T11:35:17;9.37;;;8.43;;
23802;SDS011;12082;51.786;6.018;2022-10-30T11:37:44;14.07;;;9.57;;
23802;SDS011;12082;51.786;6.018;2022-10-30T11:42:43;15.53;;;10.40;;
23802;SDS011;12082;51.786;6.018;2022-10-30T11:45:14;13.20;;;9.20;;
23802;SDS011;12082;51.786;6.018;2022-10-30T11:47:41;12.03;;;10.37;;
23802;SDS011;12082;51.786;6.018;2022-10-30T11:50:17;17.37;;;10.70;;
23802;SDS011;12082;51.786;6.018;2022-10-30T11:52:45;17.77;;;11.20;;
23802;SDS011;12082;51.786;6.018;2022-10-30T11:57:48;13.27;;;9.73;;
23802;SDS011;12082;51.786;6.018;2022-10-30T12:02:41;21.53;;;11.10;;
23802;SDS011;12082;51.786;6.018;2022-10-30T12:07:52;14.53;;;10.67;;
23802;SDS011;12082;51.786;6.018;2022-10-30T12:10:23;19.53;;;10.83;;
23802;SDS011;12082;51.786;6.018;2022-10-30T12:12:49;14.67;;;10.03;;
23802;SDS011;12082;51.786;6.018;2022-10-30T12:17:49;19.30;;;10.40;;
23802;SDS011;12082;51.786;6.018;2022-10-30T12:20:15;17.80;;;10.10;;
23802;SDS011;12082;51.786;6.018;2022-10-30T12:22:41;18.23;;;10.63;;
23802;SDS011;12082;51.786;6.018;2022-10-30T12:27:45;14.10;;;10.13;;
23802;SDS011;12082;51.786;6.018;2022-10-30T12:30:18;12.30;;;10.10;;
23802;SDS011;12082;51.786;6.018;2022-10-30T12:32:49;18.37;;;10.73;;
23802;SDS011;12082;51.786;6.018;2022-10-30T12:37:52;23.30;;;10.43;;
23802;SDS011;12082;51.786;6.018;2022-10-30T12:40:20;12.73;;;10.27;;
23802;SDS011;12082;51.786;6.018;2022-10-30T12:42:50;17.50;;;10.77;;
23802;SDS011;12082;51.786;6.018;2022-10-30T12:45:19;16.93;;;10.87;;
23802;SDS011;12082;51.786;6.018;2022-10-30T12:48:01;17.70;;;10.67;;
23802;SDS011;12082;51.786;6.018;2022-10-30T12:53:13;19.53;;;10.17;;
23802;SDS011;12082;51.786;6.018;2022-10-30T12:55:46;18.47;;;10.70;;
23802;SDS011;12082;51.786;6.018;2022-10-30T12:58:17;15.20;;;10.47;;
23802;SDS011;12082;51.786;6.018;2022-10-30T13:00:51;17.40;;;10.93;;
23802;SDS011;12082;51.786;6.018;2022-10-30T13:03:52;17.53;;;10.63;;
23802;SDS011;12082;51.786;6.018;2022-10-30T13:06:20;23.57;;;11.37;;
23802;SDS011;12082;51.786;6.018;2022-10-30T13:11:15;19.53;;;11.27;;
23802;SDS011;12082;51.786;6.018;2022-10-30T13:13:50;15.73;;;10.83;;
23802;SDS011;12082;51.786;6.018;2022-10-30T13:16:27;19.90;;;10.20;;
23802;SDS011;12082;51.786;6.018;2022-10-30T13:18:57;18.80;;;10.80;;
23802;SDS011;12082;51.786;6.018;2022-10-30T13:21:38;22.73;;;10.37;;
23802;SDS011;12082;51.786;6.018;2022-10-30T13:24:11;17.87;;;11.13;;
23802;SDS011;12082;51.786;6.018;2022-10-30T13:26:57;13.57;;;10.30;;
23802;SDS011;12082;51.786;6.018;2022-10-30T13:35:35;15.50;;;10.50;;
23802;SDS011;12082;51.786;6.018;2022-10-30T13:37:42;16.53;;;10.67;;
23802;SDS011;12082;51.786;6.018;2022-10-30T13:45:24;12.07;;;9.93;;
23802;SDS011;12082;51.786;6.018;2022-10-30T13:53:24;16.37;;;10.47;;
23802;SDS011;12082;51.786;6.018;2022-10-30T13:55:53;17.53;;;10.10;;
23802;SDS011;12082;51.786;6.018;2022-10-30T13:58:24;13.13;;;10.10;;
23802;SDS011;12082;51.786;6.018;2022-10-30T14:11:05;11.30;;;9.10;;
23802;SDS011;12082;51.786;6.018;2022-10-30T14:18:58;17.43;;;10.10;;
23802;SDS011;12082;51.786;6.018;2022-10-30T14:24:21;12.23;;;10.13;;
23802;SDS011;12082;51.786;6.018;2022-10-30T14:26:49;14.63;;;9.10;;
23802;SDS011;12082;51.786;6.018;2022-10-30T14:32:48;16.37;;;9.33;;
23802;SDS011;12082;51.786;6.018;2022-10-30T14:37:14;12.43;;;9.30;;
23802;SDS011;12082;51.786;6.018;2022-10-30T14:39:43;11.87;;;9.37;;
23802;SDS011;12082;51.786;6.018;2022-10-30T14:47:35;11.93;;;9.70;;
23802;SDS011;12082;51.786;6.018;2022-10-30T14:52:38;11.73;;;10.63;;
23802;SDS011;12082;51.786;6.018;2022-10-30T15:05:36;16.97;;;11.17;;
23802;SDS011;12082;51.786;6.018;2022-10-30T15:08:10;18.07;;;12.27;;
23802;SDS011;12082;51.786;6.018;2022-10-30T15:10:41;13.97;;;10.60;;
23802;SDS011;12082;51.786;6.018;2022-10-30T15:13:17;14.90;;;11.10;;
23802;SDS011;12082;51.786;6.018;2022-10-30T15:15:44;18.37;;;11.10;;
23802;SDS011;12082;51.786;6.018;2022-10-30T15:18:17;10.87;;;9.87;;
23802;SDS011;12082;51.786;6.018;2022-10-30T15:20:48;15.00;;;11.10;;
23802;SDS011;12082;51.786;6.018;2022-10-30T15:23:18;19.20;;;12.40;;
23802;SDS011;12082;51.786;6.018;2022-10-30T15:25:47;19.33;;;11.97;;
23802;SDS011;12082;51.786;6.018;2022-10-30T15:28:15;14.90;;;11.20;;
23802;SDS011;12082;51.786;6.018;2022-10-30T15:30:56;18.83;;;11.07;;
23802;SDS011;12082;51.786;6.018;2022-10-30T15:33:23;14.93;;;12.00;;
23802;SDS011;12082;51.786;6.018;2022-10-30T15:35:49;13.60;;;11.13;;
23802;SDS011;12082;51.786;6.018;2022-10-30T15:38:15;17.50;;;12.23;;
23802;SDS011;12082;51.786;6.018;2022-10-30T15:40:41;21.50;;;12.27;;
23802;SDS011;12082;51.786;6.018;2022-10-30T15:43:09;12.30;;;11.10;;
23802;SDS011;12082;51.786;6.018;2022-10-30T15:45:40;18.70;;;11.87;;
23802;SDS011;12082;51.786;6.018;2022-10-30T15:48:18;17.30;;;11.23;;
23802;SDS011;12082;51.786;6.018;2022-10-30T15:51:06;14.43;;;11.30;;
23802;SDS011;12082;51.786;6.018;2022-10-30T15:55:58;14.60;;;10.97;;
23802;SDS011;12082;51.786;6.018;2022-10-30T15:58:24;20.20;;;12.37;;
23802;SDS011;12082;51.786;6.018;2022-10-30T16:00:55;13.60;;;11.73;;
23802;SDS011;12082;51.786;6.018;2022-10-30T16:03:21;20.53;;;11.70;;
23802;SDS011;12082;51.786;6.018;2022-10-30T16:05:47;16.10;;;11.63;;
23802;SDS011;12082;51.786;6.018;2022-10-30T16:08:14;15.20;;;11.33;;
23802;SDS011;12082;51.786;6.018;2022-10-30T16:10:41;16.20;;;11.23;;
23802;SDS011;12082;51.786;6.018;2022-10-30T16:13:15;18.10;;;12.70;;
23802;SDS011;12082;51.786;6.018;2022-10-30T16:15:41;20.47;;;13.43;;
23802;SDS011;12082;51.786;6.018;2022-10-30T16:20:47;17.57;;;14.23;;
23802;SDS011;12082;51.786;6.018;2022-10-30T16:23:15;17.17;;;12.73;;
23802;SDS011;12082;51.786;6.018;2022-10-30T16:25:41;19.97;;;13.17;;
23802;SDS011;12082;51.786;6.018;2022-10-30T16:28:20;15.67;;;11.90;;
23802;SDS011;12082;51.786;6.018;2022-10-30T16:30:47;19.83;;;12.80;;
23802;SDS011;12082;51.786;6.018;2022-10-30T16:33:13;20.30;;;13.27;;
23802;SDS011;12082;51.786;6.018;2022-10-30T16:35:40;24.50;;;14.53;;
23802;SDS011;12082;51.786;6.018;2022-10-30T16:38:07;34.57;;;16.93;;
23802;SDS011;12082;51.786;6.018;2022-10-30T16:40:36;18.13;;;15.10;;
23802;SDS011;12082;51.786;6.018;2022-10-30T16:43:02;20.37;;;14.77;;
23802;SDS011;12082;51.786;6.018;2022-10-30T16:47:59;16.73;;;13.40;;
23802;SDS011;12082;51.786;6.018;2022-10-30T16:50:31;19.17;;;13.50;;
23802;SDS011;12082;51.786;6.018;2022-10-30T16:53:04;19.27;;;13.60;;